VTM weather

Nevatim Air Base
Beersheba, Southern District, Israel

Public forecast

Using degrees Celsius for public forecast. Weather courtesy of forecast.io.

METAR (pilot weather report)

Closest report is Ben Gurion International Airport, 48.6 nm (90.1 km) N. Retrieved 2019/05/22 08:20 UTC (39 minutes ago):

LLBG 220820Z 26004KT 200V320 CAVOK 34/13 Q1014 NOSIG

TAF (pilot weather forecast)

Forecast is more than 12 hours old.

Closest forecast is El Gora Airport, 46.1 nm (85.4 km) W. Retrieved 2019/05/17 18:00 UTC (5 days ago):

TAF HEGR 171700Z 1718/1824 34009KT 9999 SCT020 BECMG 1721/1723 VRB03KT BECMG 1808/1810 35008KT